Latest Weather Observations for Forrest

IDW60801

Issued at 10:33 pm WST Friday 24 February 2017 (issued every 30 minutes, with the page automatically refreshed every 10 minutes)

About weather observations | Map of weather stations | Latest weather observations for WA | Other Formats
Station Details ID: 011052 Name: FORREST Lat: -30.85 Lon: 128.11 Height: 159.0 m
Data from the previous 72 hours. | See also: Recent months at Forrest
Date/Time
WST
Temp
°C
App
Temp
°C
Dew
Point
°C
Rel
Hum
%
Delta-T
°C
Wind Press
QNH
hPa
Press
MSL
hPa
Rain since
9am
mm
Dir  Spd
km/h
Gust
km/h
Spd
kts
Gust
kts
24/10:30pm 16.5 12.4 11.4 72 2.8 E 24 32 13 17 1025.1 - 0.0
24/10:00pm 16.7 13.0 11.6 72 2.8 ESE 22 28 12 15 1025.2 - 0.0
24/09:30pm 17.2 12.4 11.7 70 3.0 ESE 28 35 15 19 1025.6 - 0.0
24/09:00pm 17.5 12.4 11.8 69 3.1 ESE 30 35 16 19 1025.6 1024.9 0.0
24/08:30pm 18.0 12.4 11.6 66 3.5 ESE 32 44 17 24 1025.3 - 0.0
24/08:00pm 18.6 12.5 11.7 64 3.8 ESE 35 46 19 25 1025.4 - 0.0
24/07:30pm 19.3 13.2 11.8 62 4.2 ESE 35 46 19 25 1025.2 - 0.0
24/07:00pm 20.3 14.6 11.8 58 4.8 ESE 33 43 18 23 1024.6 - 0.0
24/06:30pm 21.7 16.1 12.0 54 5.5 SE 33 48 18 26 1024.2 - 0.0
24/06:00pm 23.0 16.8 11.4 48 6.5 SE 35 44 19 24 1024.0 1023.4 0.0
24/05:30pm 24.4 18.5 11.0 43 7.5 SE 33 48 18 26 1023.8 - 0.0
24/05:00pm 25.7 19.7 10.7 39 8.5 SE 33 44 18 24 1023.5 - 0.0
24/04:30pm 26.5 20.3 10.2 36 9.2 SE 33 44 18 24 1023.3 - 0.0
24/04:00pm 27.5 21.7 9.3 32 10.1 ESE 30 39 16 21 1023.4 - 0.0
24/03:30pm 27.6 22.2 9.4 32 10.1 SE 28 41 15 22 1023.2 - 0.0
24/03:00pm 28.4 22.5 9.2 30 10.7 SE 30 39 16 21 1023.2 1022.6 0.0
24/02:30pm 28.7 23.3 9.4 30 10.8 SE 28 39 15 21 1023.4 - 0.0
24/02:00pm 27.9 23.1 8.7 30 10.6 SE 24 39 13 21 1023.8 - 0.0
24/01:30pm 28.2 23.7 9.9 32 10.3 ESE 24 35 13 19 1024.2 - 0.0
24/01:00pm 27.4 23.1 9.3 32 10.1 SE 22 35 12 19 1024.6 - 0.0
24/12:30pm 27.2 22.8 9.1 32 10.0 E 22 33 12 18 1025.2 - 0.0
24/12:00pm 27.0 23.5 10.2 35 9.4 SE 19 35 10 19 1025.6 1024.9 0.0
24/11:30am 25.2 20.6 9.5 37 8.7 ESE 24 33 13 18 1026.1 - 0.0
24/11:00am 25.1 20.3 10.2 39 8.3 ESE 26 35 14 19 1026.5 - 0.0
24/10:30am 24.0 20.0 10.3 42 7.6 ESE 22 37 12 20 1026.9 - 0.0
24/10:00am 23.3 18.6 10.7 45 7.0 E 26 35 14 19 1027.2 - 0.0
24/09:30am 22.0 17.0 10.8 49 6.2 E 28 39 15 21 1027.5 - 0.0
24/09:00am 21.2 16.6 11.0 52 5.6 ESE 26 37 14 20 1027.7 1027.1 0.0
24/08:30am 20.6 15.7 11.2 55 5.2 E 28 37 15 20 1028.0 - 0.0
24/08:00am 19.9 14.4 11.9 60 4.5 E 32 46 17 25 1028.2 - 0.0
24/07:51am 19.6 14.7 11.4 59 4.5 E 28 46 15 25 1028.1 - 0.0
24/07:30am 19.1 13.9 11.7 62 4.1 E 30 35 16 19 1028.0 - 0.0
24/07:00am 17.6 13.6 11.8 69 3.2 E 24 32 13 17 1027.9 - 0.0
24/06:30am 15.4 12.6 11.2 76 2.3 ESE 17 22 9 12 1027.6 - 0.0
24/06:00am 13.3 11.0 10.5 83 1.5 ESE 13 15 7 8 1027.3 1026.6 0.0
24/05:30am 11.2 9.0 9.5 89 0.9 ESE 11 13 6 7 1027.1 - 0.0
24/05:00am 11.1 8.9 9.2 88 1.0 SE 11 13 6 7 1026.9 - 0.0
24/04:30am 11.5 9.0 9.6 88 1.0 SE 13 15 7 8 1026.5 - 0.0
24/04:00am 11.7 9.2 9.6 87 1.1 SE 13 15 7 8 1026.2 - 0.0
24/03:30am 11.9 9.4 9.6 86 1.2 SE 13 15 7 8 1026.0 - 0.0
24/03:00am 12.1 9.6 9.7 85 1.2 SE 13 13 7 7 1026.0 1025.3 0.0
24/02:30am 12.6 10.6 10.0 84 1.3 SE 11 13 6 7 1025.9 - 0.0
24/02:00am 12.9 10.8 9.9 82 1.6 SE 11 13 6 7 1025.8 - 0.0
24/01:30am 13.7 11.7 10.3 80 1.8 ESE 11 13 6 7 1025.9 - 0.0
24/01:00am 14.4 12.1 10.6 78 2.0 ESE 13 15 7 8 1025.8 - 0.0
24/12:30am 15.0 12.8 10.8 76 2.2 ESE 13 15 7 8 1025.8 - 0.0
24/12:00am 15.3 12.8 10.9 75 2.3 SE 15 17 8 9 1025.9 1025.2 0.0
 
Date/Time
WST
Temp
°C
App
Temp
°C
Dew
Point
°C
Rel
Hum
%
Delta-T
°C
Wind Press
QNH
hPa
Press
MSL
hPa
Rain since
9am
mm
Dir  Spd
km/h
Gust
km/h
Spd
kts
Gust
kts
23/11:30pm 15.8 13.0 11.2 74 2.5 SE 17 20 9 11 1025.8 - 0.0
23/11:00pm 16.2 13.0 11.2 72 2.7 SE 19 22 10 12 1025.8 - 0.0
23/10:30pm 16.6 13.2 11.3 71 2.9 SE 20 26 11 14 1025.6 - 0.0
23/10:00pm 17.0 13.6 11.3 69 3.1 SE 20 26 11 14 1025.6 - 0.0
23/09:30pm 17.4 12.9 11.4 68 3.3 SE 26 32 14 17 1025.6 - 0.0
23/09:00pm 17.9 13.1 11.5 66 3.5 SE 28 35 15 19 1025.5 1024.8 0.0
23/08:30pm 18.3 13.1 11.6 65 3.7 SE 30 39 16 21 1025.1 - 0.0
23/08:00pm 19.0 13.7 11.3 61 4.2 SE 30 39 16 21 1024.6 - 0.0
23/07:30pm 19.7 14.6 10.7 56 4.9 SE 28 37 15 20 1024.2 - 0.0
23/07:00pm 20.7 16.0 10.5 52 5.6 SSE 26 39 14 21 1023.7 - 0.0
23/06:30pm 21.9 16.7 10.1 47 6.5 SE 28 41 15 22 1023.2 - 0.0
23/06:00pm 23.3 17.3 10.0 43 7.3 SSE 32 41 17 22 1022.8 1022.2 0.0
23/05:30pm 25.0 18.8 10.1 39 8.3 SE 33 43 18 23 1022.3 - 0.0
23/05:00pm 26.2 20.2 10.0 36 9.1 SSE 32 43 17 23 1021.9 - 0.0
23/04:30pm 28.3 24.3 9.1 30 10.7 SE 20 28 11 15 1021.6 - 0.0
23/04:00pm 28.4 24.9 8.7 29 10.9 SSE 17 26 9 14 1021.5 - 0.0
23/03:30pm 28.5 26.5 8.7 29 10.9 ESE 9 32 5 17 1021.3 - 0.0
23/03:00pm 28.1 25.6 8.4 29 10.8 SSE 11 24 6 13 1021.4 1020.7 0.0
23/02:30pm 27.7 23.7 8.1 29 10.7 SE 19 30 10 16 1021.6 - 0.0
23/02:00pm 28.2 25.1 9.0 30 10.7 ESE 15 24 8 13 1021.7 - 0.0
23/01:30pm 26.9 23.7 8.4 31 10.1 S 15 26 8 14 1022.0 - 0.0
23/01:00pm 26.5 23.9 9.4 34 9.5 S 13 24 7 13 1022.3 - 0.0
23/12:30pm 25.9 23.0 9.7 36 9.0 SE 15 28 8 15 1022.5 - 0.0
23/12:00pm 25.5 22.7 10.1 38 8.6 S 15 28 8 15 1022.8 1022.2 0.0
23/11:30am 25.7 23.5 10.7 39 8.5 S 13 30 7 16 1023.0 - 0.0
23/11:00am 23.8 22.1 11.2 45 7.1 SSW 11 22 6 12 1023.4 - 0.0
23/10:30am 22.9 20.1 11.3 48 6.5 SSE 17 26 9 14 1023.7 - 0.0
23/10:00am 22.4 20.4 11.5 50 6.1 SSE 13 22 7 12 1024.0 - 0.0
23/09:30am 21.9 19.9 11.6 52 5.8 SSE 13 24 7 13 1024.1 - 0.0
23/09:00am 21.6 19.6 11.6 53 5.6 ESE 13 22 7 12 1024.1 1023.5 0.0
23/08:30am 20.1 18.1 11.6 58 4.7 ESE 13 22 7 12 1024.1 - 0.0
23/08:00am 19.6 18.3 12.4 63 4.1 ESE 11 19 6 10 1024.1 - 0.0
23/07:30am 18.8 17.6 12.8 68 3.4 ESE 11 15 6 8 1023.8 - 0.0
23/07:00am 17.5 16.9 12.4 72 2.8 SE 7 11 4 6 1023.5 - 0.0
23/06:30am 15.1 14.2 11.3 78 2.0 SSW 7 9 4 5 1023.1 - 0.0
23/06:00am 12.8 11.3 10.7 87 1.1 SSW 9 11 5 6 1022.9 1022.3 0.0
23/05:30am 11.5 9.4 9.8 89 0.9 SSW 11 13 6 7 1022.6 - 0.0
23/05:00am 12.0 10.4 10.2 89 0.9 SSW 9 9 5 5 1022.4 - 0.0
23/04:30am 11.9 11.9 9.8 87 1.1 CALM 0 0 0 0 1022.1 - 0.0
23/04:00am 11.8 11.7 9.5 86 1.2 CALM 0 0 0 0 1021.7 - 0.0
23/03:30am 11.8 10.9 9.4 85 1.2 SSW 4 7 2 4 1021.5 - 0.0
23/03:00am 12.6 11.3 10.1 85 1.3 S 7 7 4 4 1021.3 1020.6 0.0
23/02:30am 12.8 11.8 10.3 85 1.3 SE 6 6 3 3 1021.1 - 0.0
23/02:00am 13.2 12.3 10.7 85 1.3 SE 6 6 3 3 1021.0 - 0.0
23/01:30am 13.1 13.2 10.1 82 1.6 CALM 0 0 0 0 1021.1 - 0.0
23/01:00am 13.2 13.3 10.0 81 1.7 CALM 0 2 0 1 1021.2 - 0.0
23/12:30am 13.9 12.8 10.5 80 1.8 ESE 7 9 4 5 1021.3 - 0.0
23/12:00am 14.2 13.1 10.6 79 1.9 E 7 9 4 5 1021.3 1020.6 0.0
 
Date/Time
WST
Temp
°C
App
Temp
°C
Dew
Point
°C
Rel
Hum
%
Delta-T
°C
Wind Press
QNH
hPa
Press
MSL
hPa
Rain since
9am
mm
Dir  Spd
km/h
Gust
km/h
Spd
kts
Gust
kts
22/11:30pm 14.4 13.3 10.6 78 2.0 E 7 9 4 5 1021.4 - 0.0
22/11:00pm 14.6 13.0 10.2 75 2.3 E 9 11 5 6 1021.4 - 0.0
22/10:30pm 15.4 13.6 10.8 74 2.5 ESE 11 13 6 7 1021.3 - 0.0
22/10:00pm 16.2 14.5 11.2 72 2.7 SE 11 15 6 8 1021.2 - 0.0
22/09:30pm 16.9 14.9 11.6 71 2.9 SSE 13 17 7 9 1021.3 - 0.0
22/09:00pm 17.6 14.9 11.6 68 3.3 SSE 17 26 9 14 1021.2 1020.5 0.0
22/08:30pm 18.2 14.5 11.5 65 3.7 SSE 22 32 12 17 1020.9 - 0.0
22/08:00pm 19.1 15.3 11.2 60 4.3 SSE 22 32 12 17 1020.4 - 0.0
22/07:30pm 20.0 16.2 11.2 57 4.9 S 22 37 12 20 1020.0 - 0.0
22/07:00pm 20.9 17.3 10.7 52 5.6 S 20 30 11 16 1019.4 - 0.0
22/06:30pm 21.9 19.2 8.8 43 7.0 SSW 13 15 7 8 1018.7 - 0.0
22/06:00pm 22.9 19.5 9.0 41 7.5 SSW 17 19 9 10 1018.1 1017.5 0.0
22/05:30pm 23.5 20.0 8.8 39 7.9 SW 17 22 9 12 1017.7 - 0.0
22/05:00pm 23.8 20.0 9.0 39 8.0 SW 19 26 10 14 1017.5 - 0.0
22/04:30pm 23.8 20.0 9.0 39 8.0 WSW 19 33 10 18 1017.3 - 0.0
22/04:00pm 24.5 21.0 8.9 37 8.5 WSW 17 32 9 17 1017.0 - 0.0
22/03:30pm 24.5 21.1 9.3 38 8.3 WSW 17 30 9 16 1017.0 - 0.0
22/03:00pm 23.7 19.9 8.9 39 8.0 W 19 28 10 15 1017.1 1016.5 0.0
22/02:30pm 24.3 20.3 9.1 38 8.3 SW 20 30 11 16 1017.1 - 0.0
22/02:00pm 24.4 20.4 9.2 38 8.3 W 20 33 11 18 1017.2 - 0.0
22/01:30pm 22.4 18.6 8.9 42 7.3 WSW 19 32 10 17 1017.4 - 0.0
22/01:00pm 22.4 19.4 9.2 43 7.1 W 15 22 8 12 1017.6 - 0.0
22/12:30pm 22.3 17.7 9.8 45 6.8 WSW 24 35 13 19 1017.7 - 0.0
22/12:00pm 22.2 18.4 9.7 45 6.8 W 20 33 11 18 1017.8 1017.2 0.0
22/11:30am 21.0 17.3 9.6 48 6.2 W 19 32 10 17 1018.1 - 0.0
22/11:00am 21.4 17.7 10.3 49 6.1 W 20 32 11 17 1018.3 - 0.0
22/10:30am 20.0 16.7 9.6 51 5.6 SW 17 28 9 15 1018.1 - 0.0
22/10:00am 19.6 16.4 10.0 54 5.2 W 17 28 9 15 1018.1 - 0.0
22/09:30am 19.0 15.8 9.8 55 4.9 W 17 26 9 14 1018.3 - 0.0
22/09:00am 18.7 15.1 10.0 57 4.7 WSW 19 32 10 17 1018.0 1017.4 1.2
22/08:30am 18.3 14.5 9.9 58 4.5 WNW 20 26 11 14 1017.7 - 1.2
22/08:00am 17.3 12.5 9.0 58 4.3 WNW 24 30 13 16 1017.4 - 1.2
22/07:30am 16.9 11.2 8.3 57 4.4 W 28 33 15 18 1017.1 - 1.2
22/07:00am 15.9 10.9 7.9 59 4.1 W 24 30 13 16 1016.8 - 1.2
22/06:30am 14.7 11.2 8.6 67 3.1 W 17 20 9 11 1016.6 - 1.2
22/06:00am 13.1 9.0 7.8 70 2.6 W 19 26 10 14 1016.5 1015.9 1.2
22/05:30am 12.2 7.8 7.5 73 2.3 W 20 26 11 14 1015.9 - 1.2
22/05:00am 12.3 7.5 7.2 71 2.5 WSW 22 28 12 15 1015.6 - 1.2
22/04:30am 12.7 7.5 7.2 69 2.7 WSW 24 30 13 16 1015.1 - 1.2
22/04:00am 12.6 7.0 7.3 70 2.6 WSW 26 32 14 17 1014.6 - 1.2
22/03:30am 12.6 8.2 7.5 71 2.5 WSW 20 30 11 16 1014.2 - 1.2
22/03:00am 13.1 8.3 7.3 68 2.8 SW 22 28 12 15 1013.9 1013.2 1.2
22/02:30am 13.9 8.5 7.9 67 3.0 SW 26 33 14 18 1013.4 - 1.2
22/02:00am 14.0 10.2 9.2 73 2.5 WSW 19 28 10 15 1013.4 - 1.2
22/01:30am 13.1 10.7 11.3 89 1.0 WSW 15 20 8 11 1013.3 - 1.2
22/01:00am 13.1 11.5 11.5 90 0.9 W 11 15 6 8 1013.2 - 1.2
22/12:30am 13.5 11.5 11.4 87 1.1 WSW 13 15 7 8 1012.9 - 1.2
22/12:00am 14.1 12.0 11.3 83 1.5 SW 13 17 7 9 1013.0 1012.3 1.2
 
Date/Time
WST
Temp
°C
App
Temp
°C
Dew
Point
°C
Rel
Hum
%
Delta-T
°C
Wind Press
QNH
hPa
Press
MSL
hPa
Rain since
9am
mm
Dir  Spd
km/h
Gust
km/h
Spd
kts
Gust
kts
21/11:30pm 14.7 11.9 11.3 80 1.8 SW 17 20 9 11 1012.8 - 1.2
21/11:00pm 15.1 11.8 11.5 79 1.9 SSW 20 30 11 16 1012.7 - 1.2

Other Formats:

Comma delimited format used in spreadsheet applications
http://www.bom.gov.au/fwo/IDW60801/IDW60801.95646.axf

JavaScript Object Notation format (JSON) in row-major order
http://www.bom.gov.au/fwo/IDW60801/IDW60801.95646.json